Time;durP1;ratioP1;P1;durP2;ratioP2;P2;SDS_P1;SDS_P2;PMS_P1;PMS_P2;Temp;Humidity;BMP_temperature;BMP_pressure;BME280_temperature;BME280_humidity;BME280_pressure;Samples;Min_cycle;Max_cycle;Signal;HPM_P1;HPM_P2
2021/03/01 00:00:00;;;;;;;8.93;4.17;;;-7.50;45.30;;;;;;4374681;32;20066;-30
2021/03/01 00:02:27;;;;;;;11.10;4.27;;;-7.60;45.20;;;;;;4374708;32;20178;-30
2021/03/01 00:04:53;;;;;;;5.73;3.13;;;-7.70;45.30;;;;;;4373139;32;20084;-31
2021/03/01 00:07:23;;;;;;;8.57;3.43;;;-7.80;45.50;;;;;;4374461;32;20062;-31
2021/03/01 00:09:49;;;;;;;9.03;4.03;;;-7.80;45.60;;;;;;4373335;32;20074;-33
2021/03/01 00:12:16;;;;;;;10.33;4.90;;;-7.80;45.80;;;;;;4374292;32;20466;-30
2021/03/01 00:14:43;;;;;;;8.33;2.77;;;-7.80;45.80;;;;;;4374582;32;20094;-31
2021/03/01 00:17:09;;;;;;;7.53;3.20;;;-7.80;45.80;;;;;;4374385;32;20082;-31
2021/03/01 00:19:36;;;;;;;7.37;1.90;;;-7.80;45.80;;;;;;4374625;32;20070;-31
2021/03/01 00:22:02;;;;;;;10.83;4.23;;;-7.80;45.80;;;;;;4374634;32;20066;-30
2021/03/01 00:24:29;;;;;;;10.90;3.73;;;-7.80;45.60;;;;;;4374639;32;20145;-31
2021/03/01 00:26:55;;;;;;;8.40;3.73;;;-7.70;45.60;;;;;;4365411;32;20156;-32
2021/03/01 00:29:22;;;;;;;12.40;4.47;;;-7.70;45.60;;;;;;4358880;32;20072;-32
2021/03/01 00:31:48;;;;;;;12.57;3.80;;;-7.80;45.50;;;;;;4359125;32;20054;-32
2021/03/01 00:34:14;;;;;;;10.70;3.70;;;-7.80;45.60;;;;;;4359546;32;20098;-31
2021/03/01 00:36:41;;;;;;;6.30;2.60;;;-7.90;45.60;;;;;;4359154;32;20066;-32
2021/03/01 00:39:07;;;;;;;9.67;3.10;;;-7.90;45.80;;;;;;4359442;32;20075;-32
2021/03/01 00:41:34;;;;;;;6.77;3.03;;;-7.90;45.90;;;;;;4359074;32;20058;-31
2021/03/01 00:44:00;;;;;;;5.73;2.57;;;-8.00;46.00;;;;;;4359344;32;20142;-33
2021/03/01 00:46:27;;;;;;;7.53;2.73;;;-8.00;46.20;;;;;;4358771;32;20482;-34
2021/03/01 00:48:53;;;;;;;8.10;3.70;;;-8.10;46.20;;;;;;4359128;32;20104;-31
2021/03/01 00:51:20;;;;;;;12.13;4.47;;;-8.10;46.30;;;;;;4359056;32;20190;-32
2021/03/01 00:53:46;;;;;;;10.73;3.63;;;-8.20;46.40;;;;;;4358746;32;20120;-30
2021/03/01 00:56:13;;;;;;;8.67;4.13;;;-8.20;46.70;;;;;;4359192;32;20139;-32
2021/03/01 00:58:39;;;;;;;11.47;3.80;;;-8.30;46.80;;;;;;4357055;32;20144;-31
2021/03/01 01:01:06;;;;;;;10.27;4.00;;;-8.30;47.00;;;;;;4358587;32;20109;-31
2021/03/01 01:03:32;;;;;;;8.83;2.90;;;-8.30;46.90;;;;;;4357245;32;20114;-31
2021/03/01 01:05:59;;;;;;;7.53;3.23;;;-8.30;47.00;;;;;;4358944;32;20070;-32
2021/03/01 01:08:25;;;;;;;8.27;3.43;;;-8.30;46.90;;;;;;4358862;32;20155;-31
2021/03/01 01:10:52;;;;;;;6.10;3.63;;;-8.20;46.80;;;;;;4358977;32;20557;-31
2021/03/01 01:13:19;;;;;;;7.70;3.07;;;-8.10;46.70;;;;;;4358410;32;20162;-31
2021/03/01 01:15:45;;;;;;;9.53;2.13;;;-8.10;46.50;;;;;;4358688;32;20054;-30
2021/03/01 01:18:12;;;;;;;14.93;4.50;;;-8.10;46.20;;;;;;4358787;32;20067;-31
2021/03/01 01:20:38;;;;;;;15.13;4.87;;;-8.00;46.00;;;;;;4358560;32;20073;-31
2021/03/01 01:23:05;;;;;;;6.80;2.97;;;-8.10;45.90;;;;;;4358660;32;20092;-32
2021/03/01 01:25:31;;;;;;;4.60;1.73;;;-8.10;46.00;;;;;;4357131;32;20081;-31
2021/03/01 01:27:58;;;;;;;13.67;4.80;;;-8.10;45.90;;;;;;4373551;32;20481;-31
2021/03/01 01:30:25;;;;;;;12.07;3.90;;;-8.10;45.80;;;;;;4372250;32;20085;-32
2021/03/01 01:32:52;;;;;;;9.07;4.13;;;-8.10;45.70;;;;;;4373289;32;20185;-32
2021/03/01 01:35:19;;;;;;;16.87;6.10;;;-8.10;45.60;;;;;;4373292;32;20086;-35
2021/03/01 01:37:45;;;;;;;25.57;9.40;;;-8.20;45.70;;;;;;4372157;32;20046;-32
2021/03/01 01:40:16;;;;;;;18.37;7.00;;;-8.20;45.80;;;;;;4373098;32;20086;-32
2021/03/01 01:42:42;;;;;;;14.73;5.10;;;-8.30;45.80;;;;;;4372621;32;20078;-32
2021/03/01 01:45:12;;;;;;;23.63;7.10;;;-8.30;45.90;;;;;;4373240;32;20077;-31
2021/03/01 01:47:39;;;;;;;15.80;5.83;;;-8.30;45.90;;;;;;4372787;32;20089;-32
2021/03/01 01:50:07;;;;;;;22.00;7.03;;;-8.40;46.00;;;;;;4372950;32;20124;-32
2021/03/01 01:52:34;;;;;;;20.57;7.90;;;-8.40;46.10;;;;;;4373350;32;20077;-32
2021/03/01 01:55:01;;;;;;;16.43;5.73;;;-8.50;46.30;;;;;;4372963;32;20066;-32
2021/03/01 01:57:28;;;;;;;21.30;7.93;;;-8.50;46.40;;;;;;4371828;32;20063;-32
2021/03/01 01:59:54;;;;;;;16.80;6.33;;;-8.60;46.40;;;;;;4371582;32;20074;-32
2021/03/01 02:02:21;;;;;;;20.93;5.67;;;-8.60;46.50;;;;;;4371302;32;20082;-32
2021/03/01 02:04:57;;;;;;;13.47;5.23;;;-8.60;46.40;;;;;;4373032;32;20076;-32
2021/03/01 02:07:42;;;;;;;10.63;4.47;;;-8.60;46.40;;;;;;4359832;32;20059;-33
2021/03/01 02:10:15;;;;;;;17.15;6.50;;;-8.60;46.30;;;;;;4372997;32;20092;-33
2021/03/01 02:12:59;;;;;;;16.87;5.33;;;-8.60;46.30;;;;;;4373160;32;20050;-34
2021/03/01 02:16:08;;;;;;;11.67;4.23;;;-8.70;46.60;;;;;;4371621;32;20153;-34
2021/03/01 02:18:35;;;;;;;15.43;4.70;;;-8.70;46.80;;;;;;4311250;33;20209;-34
2021/03/01 02:21:11;;;;;;;14.20;5.20;;;-8.70;46.80;;;;;;4311088;33;20162;-33
2021/03/01 02:23:41;;;;;;;18.13;6.27;;;-8.70;46.90;;;;;;4311114;33;20159;-35
2021/03/01 02:26:27;;;;;;;18.73;5.80;;;-8.80;46.90;;;;;;4295534;33;20087;-34
2021/03/01 02:29:03;;;;;;;22.10;6.47;;;-8.80;47.10;;;;;;4285672;33;20101;-31
2021/03/01 02:31:29;;;;;;;22.93;7.03;;;-8.80;47.70;;;;;;4285007;33;20107;-34
2021/03/01 02:33:58;;;;;;;17.57;6.20;;;-8.80;47.00;;;;;;4272870;33;20075;-33
2021/03/01 02:36:45;;;;;;;17.20;6.20;;;-8.70;47.00;;;;;;4284552;33;20143;-32
2021/03/01 02:39:11;;;;;;;18.17;6.40;;;-8.70;46.90;;;;;;4284935;33;20075;-35
2021/03/01 02:41:38;;;;;;;18.13;5.93;;;-8.60;46.80;;;;;;4272448;33;20646;-34
2021/03/01 02:44:05;;;;;;;13.10;4.70;;;-8.70;46.60;;;;;;4284836;33;20077;-31
2021/03/01 02:46:31;;;;;;;22.53;6.50;;;-8.60;46.50;;;;;;4284633;33;20078;-34
2021/03/01 02:48:58;;;;;;;15.13;5.53;;;-8.70;46.40;;;;;;4284750;33;20750;-32
2021/03/01 02:51:24;;;;;;;20.43;5.50;;;-8.70;46.30;;;;;;4286355;32;20477;-31
2021/03/01 02:53:51;;;;;;;11.40;4.03;;;-8.70;46.20;;;;;;4346096;32;20466;-33
2021/03/01 02:56:17;;;;;;;8.07;3.73;;;-8.80;46.20;;;;;;4346914;32;20074;-32
2021/03/01 02:58:44;;;;;;;20.37;5.80;;;-8.80;46.20;;;;;;4346813;32;20074;-35
2021/03/01 03:01:11;;;;;;;23.80;8.03;;;-8.70;46.20;;;;;;4359152;32;20109;-32
2021/03/01 03:03:39;;;;;;;26.43;8.87;;;-8.80;46.10;;;;;;4346823;32;20101;-33
2021/03/01 03:06:11;;;;;;;18.07;4.17;;;-8.80;46.20;;;;;;4360595;32;20155;-31
2021/03/01 03:08:38;;;;;;;20.73;7.33;;;-8.80;46.30;;;;;;4346774;32;20101;-31
2021/03/01 03:11:04;;;;;;;19.90;6.33;;;-8.80;46.20;;;;;;4358739;32;20612;-31
2021/03/01 03:13:30;;;;;;;27.37;6.37;;;-8.80;46.20;;;;;;4359060;32;20081;-32
2021/03/01 03:15:57;;;;;;;15.70;6.07;;;-8.80;46.10;;;;;;4334292;32;20503;-32
2021/03/01 03:18:24;;;;;;;28.67;8.97;;;-8.80;46.10;;;;;;4360117;32;20090;-31
2021/03/01 03:20:51;;;;;;;28.83;8.00;;;-8.80;46.00;;;;;;4358167;32;20082;-30
2021/03/01 03:23:18;;;;;;;25.53;8.27;;;-8.80;46.00;;;;;;4360147;32;20058;-31
2021/03/01 03:25:45;;;;;;;24.50;6.80;;;-8.80;46.10;;;;;;4361364;32;20565;-31
2021/03/01 03:28:11;;;;;;;19.10;6.40;;;-8.80;46.10;;;;;;4375079;32;20070;-32
2021/03/01 03:30:38;;;;;;;16.33;4.53;;;-8.80;46.10;;;;;;4375270;32;20183;-31
2021/03/01 03:33:04;;;;;;;7.03;3.83;;;-8.80;46.00;;;;;;4375049;32;20203;-35
2021/03/01 03:35:31;;;;;;;24.37;7.80;;;-8.80;46.10;;;;;;4375097;32;20143;-31
2021/03/01 03:38:16;;;;;;;10.80;3.40;;;-8.80;46.00;;;;;;4373503;32;20466;-32
2021/03/01 03:40:43;;;;;;;17.40;6.60;;;-8.80;46.00;;;;;;4362477;32;20058;-35
2021/03/01 03:43:09;;;;;;;11.97;5.07;;;-8.80;46.00;;;;;;4360620;32;20086;-31
2021/03/01 03:45:36;;;;;;;24.40;7.37;;;-8.80;46.00;;;;;;4373526;32;20066;-32
2021/03/01 03:48:04;;;;;;;15.53;3.47;;;-8.80;46.00;;;;;;4373167;32;20486;-33
2021/03/01 03:50:30;;;;;;;24.27;8.30;;;-8.80;46.10;;;;;;4374587;32;20552;-33
2021/03/01 03:53:08;;;;;;;26.30;10.60;;;-8.80;46.20;;;;;;4373300;32;20117;-33
2021/03/01 03:55:35;;;;;;;26.93;9.30;;;-8.90;46.40;;;;;;4375136;32;20145;-33
2021/03/01 03:58:06;;;;;;;28.97;10.23;;;-8.90;46.60;;;;;;4360958;32;20075;-32
2021/03/01 04:00:34;;;;;;;30.47;12.37;;;-9.00;46.80;;;;;;4372874;32;20065;-31
2021/03/01 04:03:06;;;;;;;15.23;7.33;;;-9.00;46.90;;;;;;4360930;32;20506;-31
2021/03/01 04:05:32;;;;;;;29.67;9.30;;;-9.00;47.20;;;;;;4373714;32;20485;-34
2021/03/01 04:07:58;;;;;;;28.13;9.27;;;-8.90;47.30;;;;;;4374657;32;20089;-32
2021/03/01 04:10:28;;;;;;;26.83;9.57;;;-8.90;47.30;;;;;;4372890;32;20074;-34
2021/03/01 04:12:54;;;;;;;36.27;11.60;;;-8.90;47.10;;;;;;4373142;32;20151;-33
2021/03/01 04:15:21;;;;;;;33.20;10.53;;;-8.80;47.10;;;;;;4372678;32;20532;-32
2021/03/01 04:17:47;;;;;;;30.47;9.77;;;-8.70;47.00;;;;;;4373123;32;20066;-36
2021/03/01 04:20:18;;;;;;;36.57;12.13;;;-8.60;46.90;;;;;;4372952;32;20077;-34
2021/03/01 04:22:44;;;;;;;33.33;9.37;;;-8.60;46.70;;;;;;4360842;32;20054;-35
2021/03/01 04:25:11;;;;;;;27.97;9.50;;;-8.50;46.50;;;;;;4372567;32;20064;-33
2021/03/01 04:27:38;;;;;;;42.37;13.90;;;-8.50;46.40;;;;;;4359672;32;20086;-37
2021/03/01 04:30:09;;;;;;;35.57;11.10;;;-8.40;46.30;;;;;;4345938;32;20066;-33
2021/03/01 04:32:45;;;;;;;29.80;9.07;;;-8.30;46.20;;;;;;4359775;32;20076;-33
2021/03/01 04:35:14;;;;;;;18.87;8.70;;;-8.20;46.10;;;;;;4357930;32;20082;-34
2021/03/01 04:37:41;;;;;;;19.77;6.87;;;-8.20;45.80;;;;;;4357564;32;20058;-31
2021/03/01 04:40:08;;;;;;;20.77;8.10;;;-8.10;45.80;;;;;;4358125;32;20094;-31
2021/03/01 04:42:35;;;;;;;16.70;5.67;;;-8.00;45.70;;;;;;4357821;32;20059;-32
2021/03/01 04:45:03;;;;;;;21.23;5.97;;;-7.90;45.50;;;;;;4333194;32;20515;-33
2021/03/01 04:47:30;;;;;;;12.67;4.73;;;-7.80;45.40;;;;;;4358934;32;20092;-31
2021/03/01 04:49:57;;;;;;;13.30;6.73;;;-7.80;45.10;;;;;;4357403;32;20081;-32
2021/03/01 04:52:23;;;;;;;11.67;4.60;;;-7.70;45.00;;;;;;4357887;32;20519;-32
2021/03/01 04:54:50;;;;;;;10.03;4.83;;;-7.70;45.00;;;;;;4358881;32;20055;-32
2021/03/01 04:57:18;;;;;;;9.80;5.43;;;-7.60;44.90;;;;;;4358807;32;20495;-32
2021/03/01 04:59:46;;;;;;;8.87;3.90;;;-7.50;44.80;;;;;;4344874;32;20058;-32
2021/03/01 05:02:13;;;;;;;12.30;4.90;;;-7.50;44.80;;;;;;4345193;32;20069;-33
2021/03/01 05:04:40;;;;;;;10.00;4.40;;;-7.30;44.70;;;;;;4344722;32;20094;-32
2021/03/01 05:07:07;;;;;;;12.30;5.80;;;-7.20;44.60;;;;;;4345139;32;20131;-31
2021/03/01 05:09:38;;;;;;;13.73;5.03;;;-7.10;44.40;;;;;;4357599;32;20130;-32
2021/03/01 05:12:06;;;;;;;14.57;5.53;;;-6.90;44.10;;;;;;4357557;32;20128;-32
2021/03/01 05:14:32;;;;;;;12.87;5.00;;;-6.80;43.90;;;;;;4358627;32;20074;-32
2021/03/01 05:17:02;;;;;;;13.17;5.43;;;-6.60;43.70;;;;;;4358058;32;20069;-31
2021/03/01 05:19:31;;;;;;;21.50;8.30;;;-6.50;43.30;;;;;;4358792;32;20107;-32
2021/03/01 05:21:57;;;;;;;21.17;7.20;;;-6.40;43.20;;;;;;4358471;32;20069;-32
2021/03/01 05:24:24;;;;;;;13.37;5.77;;;-6.20;42.90;;;;;;4358911;32;20058;-32
2021/03/01 05:26:51;;;;;;;8.37;3.67;;;-6.10;42.60;;;;;;4367026;32;20081;-32
2021/03/01 05:29:17;;;;;;;9.00;3.93;;;-5.90;42.50;;;;;;4347114;32;20084;-31
2021/03/01 05:31:45;;;;;;;25.53;9.20;;;-5.80;42.30;;;;;;4371298;32;20541;-31
2021/03/01 05:34:11;;;;;;;17.13;6.23;;;-5.70;41.60;;;;;;4373566;32;20151;-35
2021/03/01 05:36:38;;;;;;;20.97;5.70;;;-5.60;41.20;;;;;;4373603;32;20085;-32
2021/03/01 05:39:05;;;;;;;22.20;8.33;;;-5.50;41.10;;;;;;4373452;32;20069;-33
2021/03/01 05:41:32;;;;;;;22.27;7.03;;;-5.40;41.00;;;;;;4373336;32;20644;-31
2021/03/01 05:43:59;;;;;;;20.63;7.10;;;-5.30;40.70;;;;;;4373113;32;20059;-32
2021/03/01 05:46:26;;;;;;;10.90;5.33;;;-5.20;40.30;;;;;;4373038;32;20485;-32
2021/03/01 05:48:54;;;;;;;12.87;5.27;;;-5.10;40.40;;;;;;4371872;32;20558;-33
2021/03/01 05:51:26;;;;;;;12.80;4.37;;;-5.00;40.20;;;;;;4372954;32;20066;-32
2021/03/01 05:53:59;;;;;;;10.77;3.97;;;-4.80;40.20;;;;;;4372927;32;20054;-31
2021/03/01 05:56:25;;;;;;;8.70;3.50;;;-4.70;39.90;;;;;;4373034;32;20066;-32
2021/03/01 05:58:51;;;;;;;11.43;3.63;;;-4.50;39.60;;;;;;4371459;32;20073;-32
2021/03/01 06:01:18;;;;;;;12.03;3.47;;;-4.50;39.20;;;;;;4370823;32;20156;-31
2021/03/01 06:03:44;;;;;;;9.43;3.37;;;-4.30;39.20;;;;;;4371299;32;20070;-32
2021/03/01 06:06:12;;;;;;;14.97;4.53;;;-4.20;38.90;;;;;;4372898;32;20051;-31
2021/03/01 06:08:39;;;;;;;11.13;4.20;;;-4.10;38.30;;;;;;4373074;32;20489;-32
2021/03/01 06:11:07;;;;;;;10.33;4.33;;;-4.10;38.20;;;;;;4371389;32;20124;-31
2021/03/01 06:13:35;;;;;;;13.63;4.63;;;-4.10;37.80;;;;;;4371082;32;20121;-32
2021/03/01 06:16:03;;;;;;;10.23;5.03;;;-4.10;37.70;;;;;;4371081;32;20086;-32
2021/03/01 06:18:29;;;;;;;13.47;5.53;;;-4.10;37.60;;;;;;4372620;32;20176;-32
2021/03/01 06:21:18;;;;;;;17.37;5.37;;;-4.20;37.90;;;;;;4372709;32;20069;-32
2021/03/01 06:23:45;;;;;;;15.43;5.57;;;-4.30;37.70;;;;;;4372982;32;20506;-33
2021/03/01 06:26:33;;;;;;;15.37;6.00;;;-4.30;37.60;;;;;;4368669;32;20090;-31
2021/03/01 06:29:02;;;;;;;17.33;6.90;;;-4.30;37.80;;;;;;4360610;32;20211;-32
2021/03/01 06:31:42;;;;;;;14.37;5.60;;;-4.30;38.00;;;;;;4360922;32;20090;-33
2021/03/01 06:34:24;;;;;;;7.93;2.37;;;-4.30;38.00;;;;;;4360855;32;20071;-32
2021/03/01 06:37:10;;;;;;;9.77;4.37;;;-4.20;38.30;;;;;;4360853;32;20567;-32
2021/03/01 06:39:48;;;;;;;10.57;3.77;;;-4.10;38.30;;;;;;4360754;32;20050;-35
2021/03/01 06:42:19;;;;;;;13.93;4.90;;;-3.90;38.20;;;;;;4360776;32;20183;-35
2021/03/01 06:45:09;;;;;;;15.57;5.00;;;-3.80;37.90;;;;;;4360614;32;20066;-36
2021/03/01 06:47:53;;;;;;;10.30;3.97;;;-3.80;37.30;;;;;;4360286;32;20475;-35
2021/03/01 06:50:24;;;;;;;12.53;4.37;;;-3.70;37.60;;;;;;4360557;32;20164;-33
2021/03/01 06:52:50;;;;;;;7.80;2.77;;;-3.60;37.70;;;;;;4360579;32;20070;-36
2021/03/01 06:55:18;;;;;;;12.43;4.03;;;-3.60;37.20;;;;;;4346731;32;20173;-36
2021/03/01 06:57:44;;;;;;;6.70;3.30;;;-3.60;37.00;;;;;;4360757;32;20066;-37
2021/03/01 07:00:12;;;;;;;11.73;5.20;;;-3.60;36.80;;;;;;4358841;32;20145;-36
2021/03/01 07:02:43;;;;;;;10.93;4.37;;;-3.50;36.90;;;;;;4360216;32;20073;-35
2021/03/01 07:05:11;;;;;;;11.87;4.20;;;-3.50;36.90;;;;;;4360051;32;20081;-35
2021/03/01 07:07:40;;;;;;;9.37;4.33;;;-3.40;36.80;;;;;;4360361;32;20086;-36
2021/03/01 07:10:10;;;;;;;9.53;3.53;;;-3.30;36.50;;;;;;4360327;32;20105;-34
2021/03/01 07:12:46;;;;;;;9.43;3.97;;;-3.20;36.80;;;;;;4360183;32;20388;-32
2021/03/01 07:15:13;;;;;;;7.90;3.33;;;-3.20;36.60;;;;;;4360046;32;20147;-33
2021/03/01 07:17:42;;;;;;;5.33;2.67;;;-3.10;36.40;;;;;;4358703;32;20168;-33
2021/03/01 07:20:13;;;;;;;8.30;3.20;;;-3.00;36.50;;;;;;4360304;32;20101;-33
2021/03/01 07:22:44;;;;;;;9.00;3.57;;;-2.80;36.50;;;;;;4360252;32;20085;-32
2021/03/01 07:25:13;;;;;;;5.93;2.67;;;-2.70;36.10;;;;;;4360272;32;20071;-32
2021/03/01 07:27:41;;;;;;;10.73;4.13;;;-2.60;35.90;;;;;;4373415;32;20057;-32
2021/03/01 07:30:10;;;;;;;8.17;4.37;;;-2.50;35.60;;;;;;4375061;32;20719;-33
2021/03/01 07:32:38;;;;;;;7.33;4.10;;;-2.40;35.10;;;;;;4374923;32;20077;-34
2021/03/01 07:35:07;;;;;;;10.33;3.40;;;-2.20;35.00;;;;;;4374459;32;20572;-31
2021/03/01 07:37:38;;;;;;;8.97;3.40;;;-2.00;34.00;;;;;;4374800;32;20081;-32
2021/03/01 07:40:09;;;;;;;5.30;2.27;;;-1.80;33.90;;;;;;4374603;32;20092;-35
2021/03/01 07:42:38;;;;;;;7.30;2.73;;;-1.70;32.70;;;;;;4374545;32;20050;-38
2021/03/01 07:45:06;;;;;;;6.33;2.97;;;-1.50;33.30;;;;;;4373009;32;20189;-38
2021/03/01 07:47:33;;;;;;;9.63;3.77;;;-1.30;33.50;;;;;;4374710;32;20175;-37
2021/03/01 07:49:59;;;;;;;9.03;3.33;;;-1.00;33.40;;;;;;4360849;32;20808;-36
2021/03/01 07:52:28;;;;;;;15.77;4.63;;;-0.80;32.90;;;;;;4374128;32;20536;-35
2021/03/01 07:55:06;;;;;;;11.23;4.97;;;-0.70;32.10;;;;;;4374518;32;20186;-34
2021/03/01 07:57:39;;;;;;;9.87;2.90;;;-0.60;32.00;;;;;;4374412;32;20097;-34
2021/03/01 08:00:26;;;;;;;7.60;2.30;;;-0.50;31.90;;;;;;4348564;32;20065;-34
2021/03/01 08:02:53;;;;;;;8.93;3.23;;;-0.40;31.90;;;;;;4374247;32;20143;-35
2021/03/01 08:05:25;;;;;;;7.40;2.40;;;-0.30;32.30;;;;;;4374786;32;20167;-37
2021/03/01 08:07:52;;;;;;;10.50;4.07;;;-0.10;32.90;;;;;;4373027;32;20139;-38
2021/03/01 08:10:28;;;;;;;9.80;3.63;;;0.00;32.80;;;;;;4374855;32;20062;-38
2021/03/01 08:12:58;;;;;;;5.97;3.13;;;0.10;31.80;;;;;;4374224;32;20105;-36
2021/03/01 08:15:43;;;;;;;5.17;2.33;;;0.10;31.60;;;;;;4374120;32;20066;-38
2021/03/01 08:18:12;;;;;;;7.87;4.00;;;0.10;31.30;;;;;;4374498;32;20093;-35
2021/03/01 08:20:44;;;;;;;7.27;2.97;;;0.20;31.50;;;;;;4374264;32;20086;-37
2021/03/01 08:23:13;;;;;;;6.50;3.03;;;0.30;31.10;;;;;;4372969;32;20097;-34
2021/03/01 08:25:50;;;;;;;9.93;4.63;;;0.30;30.90;;;;;;4373294;32;20178;-35
2021/03/01 08:28:23;;;;;;;11.00;4.00;;;0.30;30.40;;;;;;4359246;32;20070;-35
2021/03/01 08:30:52;;;;;;;6.03;1.87;;;0.30;30.80;;;;;;4359114;32;20459;-33
2021/03/01 08:33:18;;;;;;;14.43;5.43;;;0.30;30.60;;;;;;4359004;32;20078;-36
2021/03/01 08:35:46;;;;;;;8.83;3.93;;;0.30;31.00;;;;;;4358726;32;20519;-36
2021/03/01 08:38:15;;;;;;;18.97;7.40;;;0.40;30.60;;;;;;4358626;32;20105;-36
2021/03/01 08:40:54;;;;;;;12.43;5.67;;;0.40;30.70;;;;;;4358948;32;20648;-35
2021/03/01 08:43:38;;;;;;;9.90;3.90;;;0.40;30.20;;;;;;4359274;32;20124;-36
2021/03/01 08:46:08;;;;;;;10.57;3.33;;;0.40;30.40;;;;;;4359152;32;20043;-34
2021/03/01 08:48:43;;;;;;;12.33;4.03;;;0.40;30.30;;;;;;4357238;32;20086;-34
2021/03/01 08:51:10;;;;;;;13.90;6.22;;;0.50;30.50;;;;;;4358768;32;20159;-33
2021/03/01 08:53:37;;;;;;;13.47;5.40;;;0.40;30.30;;;;;;4358735;32;20622;-33
2021/03/01 08:56:03;;;;;;;15.33;4.93;;;0.30;30.30;;;;;;4359009;32;20090;-33
2021/03/01 08:58:33;;;;;;;12.00;5.20;;;0.30;30.40;;;;;;4358755;32;20496;-36
2021/03/01 09:01:07;;;;;;;13.07;3.93;;;0.20;31.10;;;;;;4357365;32;20452;-33
2021/03/01 09:03:40;;;;;;;6.67;2.87;;;0.20;31.20;;;;;;4358637;32;20179;-33
2021/03/01 09:06:17;;;;;;;12.03;4.87;;;0.40;31.70;;;;;;4357280;32;20058;-31
2021/03/01 09:08:56;;;;;;;12.87;5.20;;;0.50;31.70;;;;;;4358940;32;20082;-32
2021/03/01 09:11:24;;;;;;;13.23;4.93;;;0.60;31.10;;;;;;4358910;32;20074;-32
2021/03/01 09:13:58;;;;;;;12.17;6.40;;;0.60;31.30;;;;;;4358653;32;20058;-33
2021/03/01 09:16:27;;;;;;;11.60;3.27;;;0.70;30.80;;;;;;4357185;32;20059;-32
2021/03/01 09:18:58;;;;;;;11.70;4.50;;;0.60;30.50;;;;;;4358564;32;20157;-33
2021/03/01 09:21:25;;;;;;;11.87;4.20;;;0.60;30.50;;;;;;4358432;32;20066;-34
2021/03/01 09:23:52;;;;;;;10.03;3.07;;;0.60;30.60;;;;;;4357508;32;20587;-32
2021/03/01 09:26:25;;;;;;;9.77;2.67;;;0.70;30.30;;;;;;4363703;32;20077;-32
2021/03/01 09:28:54;;;;;;;9.80;3.70;;;0.60;30.00;;;;;;4348472;32;20050;-33
2021/03/01 09:31:21;;;;;;;13.37;4.73;;;0.60;30.00;;;;;;4371913;32;20101;-34
2021/03/01 09:33:48;;;;;;;16.87;5.03;;;0.60;29.90;;;;;;4371666;32;20580;-32
2021/03/01 09:36:16;;;;;;;12.87;6.00;;;0.60;29.80;;;;;;4359661;32;20220;-32
2021/03/01 09:38:43;;;;;;;12.70;4.47;;;0.60;29.50;;;;;;4371693;32;20066;-35
2021/03/01 09:41:12;;;;;;;9.77;3.33;;;0.60;29.60;;;;;;4371486;32;20070;-32
2021/03/01 09:43:39;;;;;;;12.23;4.97;;;0.70;29.50;;;;;;4372687;32;20655;-33
2021/03/01 09:46:06;;;;;;;16.03;3.63;;;0.80;29.70;;;;;;4373182;32;20150;-33
2021/03/01 09:48:52;;;;;;;5.83;2.73;;;0.90;29.60;;;;;;4373363;32;20097;-37
2021/03/01 09:51:18;;;;;;;;;;;1.00;29.80;;;;;;4359950;32;20149;-33
2021/03/01 09:53:45;;;;;;;23.37;8.93;;;1.00;29.30;;;;;;4371823;32;19958;-34
2021/03/01 09:56:12;;;;;;;13.30;5.47;;;1.00;29.00;;;;;;4346894;32;20065;-36
2021/03/01 09:58:42;;;;;;;16.13;6.03;;;1.00;28.70;;;;;;4371645;32;20076;-33
2021/03/01 10:01:17;;;;;;;18.67;5.83;;;1.10;28.90;;;;;;4372902;32;20084;-35
2021/03/01 10:03:46;;;;;;;20.58;7.78;;;1.10;29.30;;;;;;4358995;32;20062;-35
2021/03/01 10:06:15;;;;;;;16.20;6.63;;;1.20;28.90;;;;;;4372731;32;20114;-33
2021/03/01 10:08:42;;;;;;;14.90;3.43;;;1.10;28.60;;;;;;4372889;32;20070;-33
2021/03/01 10:11:23;;;;;;;11.70;4.40;;;1.20;28.70;;;;;;4372996;32;20080;-35
2021/03/01 10:14:00;;;;;;;17.43;5.73;;;1.30;29.10;;;;;;4372638;32;20143;-36
2021/03/01 10:16:34;;;;;;;21.20;5.43;;;1.30;28.90;;;;;;4371468;32;20100;-35
2021/03/01 10:19:23;;;;;;;11.77;4.30;;;1.40;28.60;;;;;;4372766;32;20070;-36
2021/03/01 10:21:50;;;;;;;23.40;6.90;;;1.60;29.40;;;;;;4371535;32;20073;-39
2021/03/01 10:24:18;;;;;;;14.97;4.30;;;1.80;28.90;;;;;;4372819;32;20068;-38
2021/03/01 10:26:56;;;;;;;15.00;4.73;;;1.90;28.00;;;;;;4365118;32;20110;-37
2021/03/01 10:29:36;;;;;;;21.57;5.60;;;1.90;28.20;;;;;;4357970;32;20078;-38
2021/03/01 10:32:03;;;;;;;12.10;4.50;;;2.00;28.00;;;;;;4356409;32;20063;-38
2021/03/01 10:34:38;;;;;;;18.77;6.57;;;2.00;27.30;;;;;;4357909;32;20531;-38
2021/03/01 10:37:09;;;;;;;15.10;6.55;;;2.00;27.30;;;;;;4357845;32;20104;-39
2021/03/01 10:39:40;;;;;;;10.93;4.17;;;2.00;27.30;;;;;;4357757;32;20519;-38
2021/03/01 10:42:12;;;;;;;16.00;5.33;;;2.10;27.20;;;;;;4357696;32;20059;-38
2021/03/01 10:44:44;;;;;;;13.77;4.13;;;2.00;27.10;;;;;;4356181;32;20106;-39
2021/03/01 10:47:28;;;;;;;14.70;4.43;;;2.10;27.20;;;;;;4357791;32;20068;-38
2021/03/01 10:50:00;;;;;;;17.97;5.93;;;2.10;27.20;;;;;;4357686;32;20083;-36
2021/03/01 10:52:28;;;;;;;16.00;5.43;;;2.10;27.30;;;;;;4356292;32;20062;-34
2021/03/01 10:54:56;;;;;;;13.20;5.60;;;2.10;27.00;;;;;;4357603;32;20118;-38
2021/03/01 10:57:23;;;;;;;8.17;3.70;;;2.20;27.00;;;;;;4357785;32;20066;-36
2021/03/01 10:59:52;;;;;;;5.20;2.10;;;2.20;26.80;;;;;;4357520;32;20098;-36
2021/03/01 11:02:19;;;;;;;6.63;2.47;;;2.30;26.70;;;;;;4357444;32;20146;-35
2021/03/01 11:04:46;;;;;;;8.23;4.13;;;2.30;27.00;;;;;;4355644;32;20075;-36
2021/03/01 11:07:13;;;;;;;9.53;5.03;;;2.40;26.60;;;;;;4357230;32;20074;-39
2021/03/01 11:09:39;;;;;;;9.87;4.43;;;2.30;26.20;;;;;;4357577;32;20579;-35
2021/03/01 11:12:06;;;;;;;4.13;2.33;;;2.30;26.40;;;;;;4357614;32;20090;-36
2021/03/01 11:14:32;;;;;;;5.53;1.93;;;2.30;26.70;;;;;;4357819;32;20051;-35
2021/03/01 11:16:59;;;;;;;8.20;3.77;;;2.30;27.00;;;;;;4360197;32;20519;-34
2021/03/01 11:19:26;;;;;;;7.90;2.57;;;2.20;26.80;;;;;;4359906;32;20161;-36
2021/03/01 11:21:52;;;;;;;11.73;3.63;;;2.20;27.10;;;;;;4359887;32;20059;-35
2021/03/01 11:24:23;;;;;;;7.87;2.80;;;2.10;27.40;;;;;;4360043;32;20228;-38
2021/03/01 11:26:53;;;;;;;14.37;4.67;;;2.10;27.50;;;;;;4358751;32;20073;-35
2021/03/01 11:29:19;;;;;;;6.53;2.40;;;2.00;28.00;;;;;;4360160;32;20154;-38
2021/03/01 11:31:46;;;;;;;7.90;2.67;;;1.90;27.80;;;;;;4359861;32;20527;-36
2021/03/01 11:34:13;;;;;;;6.00;2.37;;;1.90;28.10;;;;;;4359884;32;20058;-38
2021/03/01 11:36:39;;;;;;;8.27;3.47;;;1.90;27.90;;;;;;4358225;32;20581;-34
2021/03/01 11:39:10;;;;;;;8.37;3.40;;;1.90;28.00;;;;;;4359990;32;20155;-34
2021/03/01 11:41:38;;;;;;;12.93;4.67;;;1.90;28.10;;;;;;4359937;32;20078;-39
2021/03/01 11:44:06;;;;;;;11.67;4.17;;;2.00;27.90;;;;;;4359598;32;20098;-35
2021/03/01 11:46:32;;;;;;;16.13;4.90;;;2.10;28.00;;;;;;4359826;32;20089;-38
2021/03/01 11:48:59;;;;;;;4.30;1.83;;;2.10;27.80;;;;;;4360127;32;20599;-37
2021/03/01 11:51:25;;;;;;;8.87;3.33;;;2.20;28.00;;;;;;4359919;32;20137;-36
2021/03/01 11:53:52;;;;;;;10.90;1.63;;;2.30;27.80;;;;;;4359798;32;20069;-36
2021/03/01 11:56:21;;;;;;;10.10;3.87;;;2.40;27.50;;;;;;4357811;32;20567;-40
2021/03/01 11:58:48;;;;;;;13.40;3.63;;;2.40;27.40;;;;;;4359303;32;20082;-37
2021/03/01 12:01:14;;;;;;;0.67;0.60;;;2.50;27.40;;;;;;4359664;32;20142;-34
2021/03/01 12:03:41;;;;;;;7.43;3.20;;;2.50;27.40;;;;;;4359515;32;20466;-38
2021/03/01 12:06:08;;;;;;;5.13;2.00;;;2.30;27.80;;;;;;4359380;32;20058;-40
2021/03/01 12:08:35;;;;;;;4.87;2.37;;;2.20;27.50;;;;;;4359825;32;20066;-35
2021/03/01 12:11:01;;;;;;;15.27;2.37;;;2.20;27.90;;;;;;4358018;32;20074;-37
2021/03/01 12:13:28;;;;;;;1.97;0.70;;;2.20;28.10;;;;;;4359463;32;20105;-36
2021/03/01 12:15:54;;;;;;;5.60;2.77;;;2.10;28.00;;;;;;4359231;32;20106;-38
2021/03/01 12:18:21;;;;;;;4.60;1.23;;;2.10;28.10;;;;;;4359223;32;20078;-35
2021/03/01 12:20:47;;;;;;;9.33;2.23;;;2.10;28.10;;;;;;4359290;32;20534;-37
2021/03/01 12:23:14;;;;;;;9.83;2.73;;;2.10;27.80;;;;;;4359183;32;20467;-36
2021/03/01 12:25:40;;;;;;;8.03;2.57;;;1.90;27.80;;;;;;4357851;32;20086;-39
2021/03/01 12:28:07;;;;;;;10.10;3.17;;;1.80;28.10;;;;;;4374311;32;20094;-36
2021/03/01 12:30:33;;;;;;;9.13;3.13;;;1.70;28.10;;;;;;4374127;32;20062;-36
2021/03/01 12:33:00;;;;;;;5.57;1.83;;;1.70;28.60;;;;;;4374367;32;20084;-35
2021/03/01 12:35:27;;;;;;;7.40;2.90;;;1.60;28.60;;;;;;4374362;32;20549;-34
2021/03/01 12:37:53;;;;;;;4.20;1.67;;;1.50;28.50;;;;;;4372594;32;20542;-35
2021/03/01 12:40:21;;;;;;;11.10;2.77;;;1.50;28.60;;;;;;4374411;32;20085;-35
2021/03/01 12:42:48;;;;;;;6.53;2.43;;;1.40;28.60;;;;;;4373863;32;20145;-34
2021/03/01 12:45:15;;;;;;;15.53;4.10;;;1.40;29.00;;;;;;4374018;32;20077;-35
2021/03/01 12:47:41;;;;;;;2.20;0.77;;;1.40;28.90;;;;;;4373741;32;20081;-36
2021/03/01 12:50:08;;;;;;;9.07;2.17;;;1.40;29.20;;;;;;4373809;32;20070;-35
2021/03/01 12:52:35;;;;;;;5.97;2.87;;;1.30;28.80;;;;;;4374137;32;20051;-36